createdAt,value
2023-05-05T00:01:10.574Z,1.40
2023-05-05T00:03:37.364Z,1.30
2023-05-05T00:06:05.299Z,1.20
2023-05-05T00:08:32.089Z,1.50
2023-05-05T00:10:58.677Z,1.27
2023-05-05T00:17:12.210Z,1.20
2023-05-05T00:19:38.824Z,1.30
2023-05-05T00:22:05.365Z,1.05
2023-05-05T00:24:31.991Z,1.10
2023-05-05T00:26:58.538Z,1.33
2023-05-05T00:29:25.114Z,1.25
2023-05-05T00:31:52.302Z,1.23
2023-05-05T00:34:18.999Z,1.10
2023-05-05T00:36:45.724Z,1.08
2023-05-05T00:39:14.131Z,0.93
2023-05-05T00:41:40.901Z,1.13
2023-05-05T00:44:07.500Z,1.15
2023-05-05T00:46:34.779Z,1.13
2023-05-05T00:49:01.964Z,1.02
2023-05-05T00:51:28.997Z,1.20
2023-05-05T00:53:55.773Z,1.05
2023-05-05T00:56:22.310Z,1.20
2023-05-05T00:58:49.506Z,1.10
2023-05-05T01:01:16.509Z,1.10
2023-05-05T01:03:43.221Z,0.93
2023-05-05T01:06:28.217Z,0.82
2023-05-05T01:09:11.590Z,1.10
2023-05-05T01:11:50.211Z,1.20
2023-05-05T01:14:22.878Z,0.95
2023-05-05T01:17:04.501Z,1.10
2023-05-05T01:19:56.166Z,1.17
2023-05-05T01:22:27.252Z,1.10
2023-05-05T01:25:08.854Z,1.00
2023-05-05T01:27:35.404Z,1.08
2023-05-05T01:30:39.592Z,1.00
2023-05-05T01:33:10.281Z,1.15
2023-05-05T01:35:42.499Z,1.05
2023-05-05T01:38:16.339Z,1.00
2023-05-05T01:40:48.204Z,1.25
2023-05-05T01:43:17.979Z,0.95
2023-05-05T01:45:46.611Z,1.02
2023-05-05T01:48:16.998Z,0.98
2023-05-05T01:53:11.629Z,0.90
2023-05-05T01:55:39.764Z,1.10
2023-05-05T01:58:07.690Z,1.10
2023-05-05T02:00:34.913Z,0.88
2023-05-05T02:03:04.426Z,1.02
2023-05-05T02:05:33.580Z,0.80
2023-05-05T02:08:00.985Z,1.00
2023-05-05T02:10:28.562Z,1.00
2023-05-05T02:12:57.065Z,1.08
2023-05-05T02:15:24.395Z,1.00
2023-05-05T02:17:54.747Z,1.10
2023-05-05T02:22:49.175Z,1.00
2023-05-05T02:25:17.719Z,1.10
2023-05-05T02:27:46.294Z,1.10
2023-05-05T02:30:16.922Z,1.00
2023-05-05T02:32:55.263Z,1.13
2023-05-05T02:35:27.367Z,0.93
2023-05-05T02:38:01.848Z,0.90
2023-05-05T02:40:31.096Z,1.10
2023-05-05T02:42:59.864Z,1.10
2023-05-05T02:45:28.468Z,1.00
2023-05-05T02:47:55.035Z,1.27
2023-05-05T02:50:21.632Z,1.17
2023-05-05T02:52:48.367Z,0.90
2023-05-05T02:55:15.530Z,0.90
2023-05-05T02:58:00.561Z,1.00
2023-05-05T03:00:33.249Z,1.23
2023-05-05T03:03:07.672Z,1.00
2023-05-05T03:06:17.542Z,1.13
2023-05-05T03:08:56.035Z,1.20
2023-05-05T03:11:47.694Z,0.90
2023-05-05T03:14:18.531Z,0.90
2023-05-05T03:16:46.947Z,1.10
2023-05-05T03:19:18.169Z,1.10
2023-05-05T03:21:44.690Z,1.00
2023-05-05T03:24:13.633Z,1.20
2023-05-05T03:26:40.854Z,1.17
2023-05-05T03:29:07.717Z,1.20
2023-05-05T03:31:34.509Z,1.10
2023-05-05T03:34:01.054Z,0.95
2023-05-05T03:36:29.365Z,1.00
2023-05-05T03:38:56.223Z,0.93
2023-05-05T03:41:23.608Z,1.10
2023-05-05T03:43:53.775Z,1.02
2023-05-05T03:46:20.543Z,1.20
2023-05-05T03:48:47.241Z,1.10
2023-05-05T03:51:14.128Z,1.25
2023-05-05T03:53:40.766Z,1.00
2023-05-05T03:56:07.455Z,0.88
2023-05-05T03:58:34.020Z,1.00
2023-05-05T04:01:00.575Z,1.10
2023-05-05T04:03:27.307Z,1.20
2023-05-05T04:05:54.025Z,1.10
2023-05-05T04:08:20.583Z,1.25
2023-05-05T04:10:47.140Z,1.02
2023-05-05T04:13:13.720Z,1.10
2023-05-05T04:15:45.107Z,1.00
2023-05-05T04:18:11.689Z,1.00
2023-05-05T04:20:38.245Z,1.00
2023-05-05T04:23:04.776Z,0.90
2023-05-05T04:25:31.556Z,1.00
2023-05-05T04:27:58.111Z,0.93
2023-05-05T04:30:24.664Z,0.95
2023-05-05T04:32:51.170Z,1.40
2023-05-05T04:35:17.813Z,1.20
2023-05-05T04:37:44.351Z,1.10
2023-05-05T04:40:11.244Z,1.25
2023-05-05T04:42:37.751Z,1.23
2023-05-05T04:45:04.866Z,1.10
2023-05-05T04:47:31.389Z,1.10
2023-05-05T04:49:58.003Z,1.20
2023-05-05T04:52:24.511Z,1.00
2023-05-05T04:54:51.005Z,1.10
2023-05-05T04:57:17.506Z,1.27
2023-05-05T04:59:44.052Z,1.15
2023-05-05T05:02:10.712Z,1.20
2023-05-05T05:04:37.372Z,1.20
2023-05-05T05:07:03.860Z,1.00
2023-05-05T05:09:30.415Z,1.30
2023-05-05T05:12:02.830Z,1.15
2023-05-05T05:14:30.006Z,1.15
2023-05-05T05:16:56.862Z,1.20
2023-05-05T05:19:23.374Z,1.27
2023-05-05T05:21:49.857Z,1.15
2023-05-05T05:24:16.459Z,1.20
2023-05-05T05:26:43.010Z,1.20
2023-05-05T05:29:09.586Z,1.30
2023-05-05T05:31:36.897Z,1.52
2023-05-05T05:34:03.515Z,1.13
2023-05-05T05:36:29.989Z,1.30
2023-05-05T05:38:56.558Z,1.20
2023-05-05T05:41:23.060Z,1.20
2023-05-05T05:43:49.558Z,1.15
2023-05-05T05:46:16.100Z,1.15
2023-05-05T05:48:43.190Z,1.23
2023-05-05T05:51:09.758Z,1.20
2023-05-05T05:53:36.396Z,1.40
2023-05-05T05:56:03.103Z,1.00
2023-05-05T05:58:29.661Z,1.20
2023-05-05T06:00:56.232Z,1.17
2023-05-05T06:03:22.907Z,1.13
2023-05-05T06:05:50.509Z,1.20
2023-05-05T06:08:17.009Z,1.15
2023-05-05T06:10:43.529Z,1.10
2023-05-05T06:13:10.141Z,1.15
2023-05-05T06:15:36.787Z,1.30
2023-05-05T06:18:03.444Z,1.05
2023-05-05T06:20:30.058Z,1.20
2023-05-05T06:22:56.558Z,1.10
2023-05-05T06:25:23.308Z,1.17
2023-05-05T06:27:49.864Z,1.35
2023-05-05T06:30:16.524Z,1.30
2023-05-05T06:32:43.447Z,1.00
2023-05-05T06:35:10.074Z,1.05
2023-05-05T06:37:36.568Z,1.10
2023-05-05T06:40:03.181Z,1.10
2023-05-05T06:42:30.845Z,1.23
2023-05-05T06:44:57.380Z,1.17
2023-05-05T06:47:23.911Z,1.40
2023-05-05T06:49:50.452Z,1.33
2023-05-05T06:52:16.938Z,1.40
2023-05-05T06:54:43.892Z,1.38
2023-05-05T06:57:10.559Z,1.17
2023-05-05T06:59:37.097Z,1.23
2023-05-05T07:02:04.030Z,1.23
2023-05-05T07:04:30.581Z,1.25
2023-05-05T07:06:58.370Z,1.10
2023-05-05T07:09:24.895Z,1.25
2023-05-05T07:11:51.751Z,1.20
2023-05-05T07:14:18.284Z,1.30
2023-05-05T07:16:44.796Z,1.30
2023-05-05T07:19:11.360Z,1.13
2023-05-05T07:21:39.653Z,1.20
2023-05-05T07:24:06.760Z,1.27
2023-05-05T07:26:33.316Z,1.13
2023-05-05T07:28:59.908Z,1.27
2023-05-05T07:31:26.721Z,1.15
2023-05-05T07:33:53.562Z,1.50
2023-05-05T07:36:20.132Z,1.00
2023-05-05T07:38:46.703Z,1.17
2023-05-05T07:41:13.247Z,1.20
2023-05-05T07:43:44.708Z,1.10
2023-05-05T07:46:11.667Z,1.40
2023-05-05T07:48:41.630Z,0.98
2023-05-05T07:51:08.670Z,1.05
2023-05-05T07:53:35.273Z,1.08
2023-05-05T07:56:01.883Z,1.13
2023-05-05T07:58:28.431Z,1.10
2023-05-05T08:00:54.985Z,1.02
2023-05-05T08:03:24.512Z,1.00
2023-05-05T08:05:54.402Z,1.13
2023-05-05T08:08:24.528Z,1.20
2023-05-05T08:10:53.155Z,1.05
2023-05-05T08:13:20.152Z,1.25
2023-05-05T08:15:46.943Z,1.40
2023-05-05T08:18:14.875Z,1.30
2023-05-05T08:20:41.709Z,1.15
2023-05-05T08:23:08.367Z,1.40
2023-05-05T08:25:34.953Z,1.00
2023-05-05T08:28:01.697Z,1.10
2023-05-05T08:30:28.709Z,0.98
2023-05-05T08:32:55.384Z,1.02
2023-05-05T08:35:22.101Z,1.30
2023-05-05T08:37:48.656Z,1.00
2023-05-05T08:40:15.222Z,0.90
2023-05-05T08:42:42.393Z,1.00
2023-05-05T08:45:10.845Z,0.90
2023-05-05T08:47:38.518Z,1.00
2023-05-05T08:50:08.484Z,0.90
2023-05-05T08:52:44.369Z,0.85
2023-05-05T08:55:27.271Z,0.93
2023-05-05T08:58:01.040Z,1.13
2023-05-05T09:00:28.101Z,1.00
2023-05-05T09:02:58.256Z,0.90
2023-05-05T09:07:52.319Z,1.05
2023-05-05T09:10:19.429Z,0.90
2023-05-05T09:12:46.192Z,1.08
2023-05-05T09:15:14.791Z,1.05
2023-05-05T09:17:42.342Z,0.80
2023-05-05T09:20:13.846Z,1.00
2023-05-05T09:22:47.822Z,1.00
2023-05-05T09:25:16.258Z,1.30
2023-05-05T09:27:48.151Z,0.90
2023-05-05T09:30:16.851Z,1.05
2023-05-05T09:32:45.843Z,0.80
2023-05-05T09:35:12.557Z,0.90
2023-05-05T09:37:39.121Z,0.90
2023-05-05T09:40:07.377Z,1.13
2023-05-05T09:42:35.913Z,1.17
2023-05-05T09:45:02.631Z,1.08
2023-05-05T09:47:36.433Z,1.13
2023-05-05T09:50:04.167Z,0.98
2023-05-05T09:52:31.063Z,1.00
2023-05-05T09:54:57.768Z,1.05
2023-05-05T09:57:29.105Z,0.90
2023-05-05T10:00:04.097Z,1.23
2023-05-05T10:02:33.443Z,0.90
2023-05-05T10:05:19.077Z,0.90
2023-05-05T10:07:47.904Z,1.00
2023-05-05T10:10:16.837Z,1.00
2023-05-05T10:12:45.929Z,1.00
2023-05-05T10:15:15.099Z,0.80
2023-05-05T10:20:19.208Z,0.98
2023-05-05T10:22:55.020Z,0.90
2023-05-05T10:25:30.563Z,0.80
2023-05-05T10:28:01.631Z,1.10
2023-05-05T10:30:32.673Z,0.90
2023-05-05T10:33:30.027Z,1.00
2023-05-05T10:36:01.806Z,0.90
2023-05-05T10:40:59.151Z,0.80
2023-05-05T10:43:26.790Z,1.20
2023-05-05T10:45:54.518Z,0.85
2023-05-05T10:48:37.963Z,1.00
2023-05-05T10:51:35.369Z,0.90
2023-05-05T10:54:30.077Z,0.73
2023-05-05T10:56:58.140Z,0.98
2023-05-05T10:59:37.060Z,1.00
2023-05-05T11:02:28.709Z,0.85
2023-05-05T11:05:16.855Z,0.85
2023-05-05T11:07:45.329Z,0.80
2023-05-05T11:10:14.667Z,0.95
2023-05-05T11:13:00.074Z,1.10
2023-05-05T11:15:26.798Z,1.02
2023-05-05T11:17:57.919Z,0.80
2023-05-05T11:20:59.854Z,1.02
2023-05-05T11:23:26.680Z,0.90
2023-05-05T11:25:54.024Z,0.90
2023-05-05T11:28:24.865Z,1.00
2023-05-05T11:30:58.091Z,0.90
2023-05-05T11:33:29.153Z,0.88
2023-05-05T11:35:56.053Z,0.90
2023-05-05T11:38:31.118Z,0.93
2023-05-05T11:41:10.302Z,1.00
2023-05-05T11:43:36.890Z,0.90
2023-05-05T11:46:19.637Z,0.70
2023-05-05T11:48:51.707Z,0.80
2023-05-05T11:51:18.905Z,1.00
2023-05-05T11:53:49.957Z,0.98
2023-05-05T11:56:21.817Z,0.73
2023-05-05T11:58:49.647Z,0.90
2023-05-05T12:01:16.688Z,0.93
2023-05-05T12:03:45.433Z,1.13
2023-05-05T12:06:13.182Z,0.93
2023-05-05T12:08:40.815Z,1.00
2023-05-05T12:11:09.771Z,0.90
2023-05-05T12:13:36.843Z,0.88
2023-05-05T12:16:13.863Z,0.70
2023-05-05T12:18:41.513Z,1.10
2023-05-05T12:21:13.958Z,0.95
2023-05-05T12:23:40.553Z,0.77
2023-05-05T12:26:08.014Z,0.60
2023-05-05T12:28:48.647Z,0.80
2023-05-05T12:31:15.899Z,0.80
2023-05-05T12:33:43.020Z,0.82
2023-05-05T12:36:09.753Z,1.15
2023-05-05T12:38:36.536Z,0.90
2023-05-05T12:41:03.152Z,0.90
2023-05-05T12:43:34.364Z,0.65
2023-05-05T12:46:11.953Z,0.90
2023-05-05T12:48:40.390Z,0.77
2023-05-05T12:51:12.761Z,0.70
2023-05-05T12:53:39.293Z,0.82
2023-05-05T12:56:05.948Z,0.70
2023-05-05T12:58:51.054Z,0.70
2023-05-05T13:01:17.678Z,0.80
2023-05-05T13:03:44.807Z,0.70
2023-05-05T13:06:21.568Z,0.75
2023-05-05T13:08:48.211Z,0.82
2023-05-05T13:11:14.718Z,0.68
2023-05-05T13:13:42.146Z,0.85
2023-05-05T13:16:08.796Z,0.70
2023-05-05T13:18:48.395Z,0.82
2023-05-05T13:21:15.411Z,0.90
2023-05-05T13:23:45.774Z,0.90
2023-05-05T13:28:40.406Z,0.70
2023-05-05T13:31:07.677Z,0.80
2023-05-05T13:33:35.118Z,0.73
2023-05-05T13:36:02.587Z,0.73
2023-05-05T13:38:29.470Z,0.77
2023-05-05T13:40:56.014Z,0.70
2023-05-05T13:43:22.564Z,0.70
2023-05-05T13:45:49.169Z,0.80
2023-05-05T13:48:15.726Z,0.75
2023-05-05T13:50:42.239Z,0.82
2023-05-05T13:53:08.840Z,0.77
2023-05-05T13:55:35.468Z,0.63
2023-05-05T13:58:02.027Z,0.70
2023-05-05T14:00:28.958Z,0.60
2023-05-05T14:02:55.595Z,0.70
2023-05-05T14:05:22.535Z,0.80
2023-05-05T14:07:49.453Z,0.45
2023-05-05T14:10:16.158Z,0.73
2023-05-05T14:12:42.657Z,0.60
2023-05-05T14:15:09.768Z,0.90
2023-05-05T14:17:36.523Z,0.70
2023-05-05T14:20:03.682Z,0.50
2023-05-05T14:22:30.236Z,0.80
2023-05-05T14:24:57.097Z,0.52
2023-05-05T14:27:23.644Z,0.60
2023-05-05T14:29:50.155Z,0.60
2023-05-05T14:32:16.766Z,0.55
2023-05-05T14:34:43.323Z,0.82
2023-05-05T14:37:09.814Z,0.80
2023-05-05T14:39:36.369Z,0.80
2023-05-05T14:42:02.895Z,0.60
2023-05-05T14:44:29.483Z,0.80
2023-05-05T14:46:56.069Z,0.50
2023-05-05T14:49:22.664Z,0.63
2023-05-05T14:51:49.189Z,0.52
2023-05-05T14:54:27.332Z,0.70
2023-05-05T14:56:55.266Z,0.60
2023-05-05T14:59:21.889Z,0.60
2023-05-05T15:01:48.594Z,0.70
2023-05-05T15:04:15.843Z,0.60
2023-05-05T15:06:42.349Z,0.70
2023-05-05T15:09:08.845Z,0.60
2023-05-05T15:11:35.328Z,0.63
2023-05-05T15:14:01.882Z,0.98
2023-05-05T15:16:28.492Z,0.80
2023-05-05T15:18:55.158Z,0.90
2023-05-05T15:21:21.677Z,0.75
2023-05-05T15:23:48.183Z,0.60
2023-05-05T15:26:14.746Z,0.70
2023-05-05T15:28:41.607Z,0.90
2023-05-05T15:31:08.212Z,0.70
2023-05-05T15:33:34.891Z,0.80
2023-05-05T15:36:01.499Z,0.70
2023-05-05T15:38:29.419Z,0.90
2023-05-05T15:40:56.183Z,0.60
2023-05-05T15:43:22.745Z,0.70
2023-05-05T15:45:49.354Z,0.75
2023-05-05T15:48:15.930Z,0.77
2023-05-05T15:50:42.542Z,0.60
2023-05-05T15:53:09.050Z,0.70
2023-05-05T15:55:36.174Z,0.98
2023-05-05T15:58:02.677Z,1.00
2023-05-05T16:00:29.508Z,0.80
2023-05-05T16:02:56.110Z,0.70
2023-05-05T16:05:23.077Z,0.98
2023-05-05T16:07:49.904Z,0.75
2023-05-05T16:10:18.691Z,0.90
2023-05-05T16:12:45.213Z,0.70
2023-05-05T16:15:11.961Z,1.00
2023-05-05T16:17:38.622Z,0.70
2023-05-05T16:20:05.702Z,0.80
2023-05-05T16:22:32.215Z,0.80
2023-05-05T16:24:58.762Z,0.75
2023-05-05T16:27:26.513Z,0.80
2023-05-05T16:29:53.363Z,0.80
2023-05-05T16:32:19.926Z,0.60
2023-05-05T16:34:46.447Z,0.90
2023-05-05T16:37:13.405Z,0.80
2023-05-05T16:39:41.247Z,0.73
2023-05-05T16:42:07.944Z,0.85
2023-05-05T16:44:34.522Z,0.90
2023-05-05T16:47:01.141Z,0.82
2023-05-05T16:49:27.685Z,0.90
2023-05-05T16:51:54.493Z,1.10
2023-05-05T16:54:21.087Z,1.15
2023-05-05T16:56:47.645Z,0.95
2023-05-05T16:59:16.488Z,0.88
2023-05-05T17:01:43.422Z,0.85
2023-05-05T17:04:10.981Z,1.00
2023-05-05T17:06:37.811Z,1.15
2023-05-05T17:09:06.179Z,0.90
2023-05-05T17:11:32.765Z,1.00
2023-05-05T17:13:59.273Z,0.80
2023-05-05T17:16:26.025Z,0.77
2023-05-05T17:18:53.978Z,0.70
2023-05-05T17:21:20.592Z,0.80
2023-05-05T17:23:47.067Z,0.80
2023-05-05T17:26:13.792Z,0.80
2023-05-05T17:28:40.457Z,0.90
2023-05-05T17:31:07.037Z,0.80
2023-05-05T17:33:33.588Z,0.80
2023-05-05T17:36:00.232Z,0.70
2023-05-05T17:38:26.738Z,0.82
2023-05-05T17:40:53.342Z,0.70
2023-05-05T17:43:19.948Z,0.80
2023-05-05T17:45:46.828Z,0.85
2023-05-05T17:48:13.406Z,0.60
2023-05-05T17:50:41.912Z,0.80
2023-05-05T17:53:10.717Z,0.57
2023-05-05T17:55:37.239Z,0.70
2023-05-05T17:58:03.811Z,0.70
2023-05-05T18:00:30.508Z,0.70
2023-05-05T18:02:57.079Z,0.70
2023-05-05T18:05:23.647Z,0.73
2023-05-05T18:07:50.161Z,0.73
2023-05-05T18:10:17.017Z,0.70
2023-05-05T18:12:43.639Z,0.73
2023-05-05T18:15:11.297Z,0.70
2023-05-05T18:17:38.067Z,0.70
2023-05-05T18:20:06.912Z,0.60
2023-05-05T18:22:34.084Z,0.60
2023-05-05T18:25:01.077Z,0.60
2023-05-05T18:27:28.581Z,0.70
2023-05-05T18:29:55.311Z,0.85
2023-05-05T18:32:21.873Z,0.75
2023-05-05T18:34:48.461Z,0.70
2023-05-05T18:37:15.125Z,0.65
2023-05-05T18:39:43.905Z,0.80
2023-05-05T18:42:12.823Z,0.50
2023-05-05T18:44:39.438Z,0.75
2023-05-05T18:47:06.829Z,0.90
2023-05-05T18:49:33.655Z,0.80
2023-05-05T18:52:00.163Z,0.65
2023-05-05T18:54:26.888Z,0.68
2023-05-05T18:56:53.443Z,0.63
2023-05-05T18:59:20.049Z,0.63
2023-05-05T19:01:46.669Z,0.60
2023-05-05T19:04:26.803Z,0.70
2023-05-05T19:06:57.166Z,1.08
2023-05-05T19:09:23.768Z,0.95
2023-05-05T19:11:50.936Z,0.88
2023-05-05T19:14:17.726Z,0.90
2023-05-05T19:16:44.640Z,0.80
2023-05-05T19:19:11.222Z,0.70
2023-05-05T19:21:38.317Z,0.70
2023-05-05T19:24:05.416Z,0.70
2023-05-05T19:26:31.932Z,0.80
2023-05-05T19:28:59.310Z,0.80
2023-05-05T19:31:27.800Z,0.70
2023-05-05T19:34:02.387Z,0.80
2023-05-05T19:36:31.647Z,0.73
2023-05-05T19:39:01.678Z,0.60
2023-05-05T19:41:29.217Z,0.80
2023-05-05T19:43:55.698Z,0.68
2023-05-05T19:46:23.988Z,0.68
2023-05-05T19:48:50.574Z,0.73
2023-05-05T19:51:17.082Z,0.80
2023-05-05T19:53:43.712Z,0.90
2023-05-05T19:56:11.575Z,0.90
2023-05-05T19:58:56.451Z,0.88
2023-05-05T20:01:23.427Z,0.90
2023-05-05T20:03:51.002Z,0.80
2023-05-05T20:06:17.650Z,0.88
2023-05-05T20:08:44.175Z,0.70
2023-05-05T20:11:10.693Z,0.80
2023-05-05T20:13:38.965Z,1.00
2023-05-05T20:16:06.318Z,0.80
2023-05-05T20:18:33.085Z,0.70
2023-05-05T20:20:59.850Z,0.88
2023-05-05T20:23:27.033Z,0.80
2023-05-05T20:25:54.818Z,0.77
2023-05-05T20:28:22.098Z,0.75
2023-05-05T20:30:48.620Z,0.73
2023-05-05T20:33:15.191Z,0.90
2023-05-05T20:35:41.706Z,1.00
2023-05-05T20:38:09.668Z,0.90
2023-05-05T20:40:36.402Z,0.80
2023-05-05T20:43:03.048Z,1.05
2023-05-05T20:45:31.725Z,0.85
2023-05-05T20:47:58.731Z,0.90
2023-05-05T20:50:25.700Z,0.73
2023-05-05T20:52:52.270Z,0.95
2023-05-05T20:55:18.895Z,0.82
2023-05-05T20:57:46.036Z,1.10
2023-05-05T21:00:13.022Z,0.75
2023-05-05T21:02:39.618Z,0.82
2023-05-05T21:05:06.747Z,1.00
2023-05-05T21:07:34.347Z,1.02
2023-05-05T21:10:04.887Z,0.90
2023-05-05T21:12:33.375Z,0.80
2023-05-05T21:14:59.924Z,0.70
2023-05-05T21:17:27.041Z,0.80
2023-05-05T21:19:54.282Z,0.80
2023-05-05T21:22:21.443Z,0.88
2023-05-05T21:24:48.229Z,0.70
2023-05-05T21:27:14.809Z,0.90
2023-05-05T21:29:41.289Z,0.80
2023-05-05T21:32:08.993Z,0.80
2023-05-05T21:34:35.952Z,0.80
2023-05-05T21:37:03.054Z,0.75
2023-05-05T21:39:30.971Z,0.80
2023-05-05T21:41:57.761Z,1.08
2023-05-05T21:44:25.722Z,0.85
2023-05-05T21:46:53.215Z,1.00
2023-05-05T21:49:19.767Z,0.90
2023-05-05T21:51:46.490Z,1.02
2023-05-05T21:54:13.065Z,0.82
2023-05-05T21:56:39.678Z,0.90
2023-05-05T21:59:07.044Z,0.90
2023-05-05T22:01:34.010Z,0.85
2023-05-05T22:04:00.690Z,0.90
2023-05-05T22:06:27.569Z,0.90
2023-05-05T22:08:54.204Z,1.00
2023-05-05T22:11:20.716Z,1.00
2023-05-05T22:13:47.189Z,0.82
2023-05-05T22:16:17.643Z,0.88
2023-05-05T22:18:44.720Z,0.88
2023-05-05T22:21:11.437Z,1.10
2023-05-05T22:23:39.074Z,1.05
2023-05-05T22:26:05.664Z,1.05
2023-05-05T22:28:32.221Z,1.10
2023-05-05T22:30:58.739Z,1.00
2023-05-05T22:33:25.402Z,1.20
2023-05-05T22:35:52.050Z,1.10
2023-05-05T22:38:18.778Z,0.98
2023-05-05T22:40:45.811Z,0.90
2023-05-05T22:43:12.321Z,1.00
2023-05-05T22:45:39.209Z,1.05
2023-05-05T22:48:05.907Z,1.00
2023-05-05T22:50:32.520Z,1.00
2023-05-05T22:52:59.080Z,0.80
2023-05-05T22:55:25.937Z,0.95
2023-05-05T22:57:52.738Z,1.20
2023-05-05T23:00:19.499Z,1.00
2023-05-05T23:02:46.146Z,0.90
2023-05-05T23:05:13.077Z,0.80
2023-05-05T23:07:39.674Z,0.88
2023-05-05T23:10:06.673Z,0.93
2023-05-05T23:12:33.222Z,1.05
2023-05-05T23:14:59.733Z,0.90
2023-05-05T23:17:26.337Z,1.20
2023-05-05T23:19:53.081Z,1.20
2023-05-05T23:22:19.597Z,0.85
2023-05-05T23:24:46.111Z,1.15
2023-05-05T23:27:12.672Z,0.98
2023-05-05T23:29:39.255Z,0.98
2023-05-05T23:32:06.380Z,1.15
2023-05-05T23:34:32.970Z,1.10
2023-05-05T23:36:59.468Z,1.00
2023-05-05T23:39:26.109Z,0.90
2023-05-05T23:41:52.617Z,0.90
2023-05-05T23:44:19.223Z,0.85
2023-05-05T23:46:45.902Z,0.90
2023-05-05T23:49:12.413Z,0.80
2023-05-05T23:51:38.945Z,0.80
2023-05-05T23:54:05.482Z,1.00
2023-05-05T23:56:32.084Z,0.88
2023-05-05T23:58:58.576Z,1.00
